createdAt,value
2018-06-18T00:00:17.797Z,86.68
2018-06-18T00:01:17.795Z,86.68
2018-06-18T00:02:17.774Z,87.45
2018-06-18T00:03:17.756Z,87.84
2018-06-18T00:04:17.743Z,87.84
2018-06-18T00:05:17.733Z,87.55
2018-06-18T00:06:17.730Z,87.93
2018-06-18T00:07:17.702Z,87.35
2018-06-18T00:08:17.689Z,87.55
2018-06-18T00:09:17.679Z,87.16
2018-06-18T00:10:17.664Z,86.88
2018-06-18T00:11:17.667Z,85.92
2018-06-18T00:12:17.637Z,86.78
2018-06-18T00:13:17.639Z,86.88
2018-06-18T00:14:17.612Z,88.12
2018-06-18T00:15:17.597Z,88.12
2018-06-18T00:16:17.581Z,87.93
2018-06-18T00:17:17.569Z,88.12
2018-06-18T00:18:17.573Z,87.35
2018-06-18T00:19:17.544Z,87.26
2018-06-18T00:20:17.531Z,86.78
2018-06-18T00:21:17.515Z,87.07
2018-06-18T00:22:17.517Z,87.01
2018-06-18T00:23:17.490Z,86.49
2018-06-18T00:24:17.494Z,86.58
2018-06-18T00:25:17.461Z,86.88
2018-06-18T00:26:17.466Z,86.88
2018-06-18T00:27:17.433Z,86.97
2018-06-18T00:28:17.417Z,87.45
2018-06-18T00:29:17.426Z,87.45
2018-06-18T00:30:17.396Z,86.97
2018-06-18T00:31:17.422Z,87.35
2018-06-18T00:32:17.364Z,87.49
2018-06-18T00:33:17.357Z,87.45
2018-06-18T00:34:17.346Z,86.78
2018-06-18T00:35:17.339Z,86.97
2018-06-18T00:36:17.313Z,86.97
2018-06-18T00:37:17.301Z,87.64
2018-06-18T00:38:17.305Z,87.64
2018-06-18T00:39:17.266Z,87.64
2018-06-18T00:40:17.257Z,87.64
2018-06-18T00:41:17.248Z,88.12
2018-06-18T00:42:17.238Z,89.27
2018-06-18T00:43:17.220Z,89.27
2018-06-18T00:44:17.221Z,88.89
2018-06-18T00:45:17.186Z,89.85
2018-06-18T00:46:17.179Z,90.90
2018-06-18T00:47:17.171Z,90.04
2018-06-18T00:48:17.151Z,90.42
2018-06-18T00:49:17.153Z,90.61
2018-06-18T00:50:17.129Z,91.09
2018-06-18T00:51:17.130Z,91.00
2018-06-18T00:52:17.103Z,91.28
2018-06-18T00:53:17.085Z,91.19
2018-06-18T00:54:17.073Z,91.67
2018-06-18T00:55:17.058Z,91.86
2018-06-18T00:56:17.047Z,91.77
2018-06-18T00:57:17.047Z,91.77
2018-06-18T00:58:17.020Z,91.77
2018-06-18T00:59:17.023Z,91.96
2018-06-18T01:00:16.991Z,92.44
2018-06-18T01:01:16.979Z,92.63
2018-06-18T01:02:16.965Z,92.44
2018-06-18T01:03:16.967Z,92.44
2018-06-18T01:04:16.939Z,91.86
2018-06-18T01:05:16.937Z,92.44
2018-06-18T01:06:16.917Z,92.34
2018-06-18T01:07:16.901Z,92.54
2018-06-18T01:08:16.884Z,92.58
2018-06-18T01:09:16.884Z,92.44
2018-06-18T01:10:16.857Z,92.58
2018-06-18T01:11:16.844Z,92.44
2018-06-18T01:12:16.831Z,92.77
2018-06-18T01:13:16.818Z,92.72
2018-06-18T01:14:16.804Z,92.63
2018-06-18T01:15:16.817Z,93.26
2018-06-18T01:16:16.781Z,93.30
2018-06-18T01:17:16.762Z,93.44
2018-06-18T01:18:16.748Z,93.06
2018-06-18T01:19:16.734Z,93.11
2018-06-18T01:20:16.720Z,93.30
2018-06-18T01:21:16.725Z,93.49
2018-06-18T01:22:16.695Z,93.73
2018-06-18T01:23:16.681Z,93.83
2018-06-18T01:24:16.660Z,94.31
2018-06-18T01:25:16.656Z,94.02
2018-06-18T01:26:37.653Z,94.12
2018-06-18T01:27:16.628Z,94.02
2018-06-18T01:28:16.610Z,94.40
2018-06-18T01:29:16.598Z,94.69
2018-06-18T01:30:16.584Z,94.69
2018-06-18T01:31:16.574Z,94.79
2018-06-18T01:32:16.571Z,95.03
2018-06-18T01:33:16.539Z,95.36
2018-06-18T01:34:16.529Z,95.07
2018-06-18T01:35:16.516Z,95.65
2018-06-18T01:36:16.502Z,95.56
2018-06-18T01:37:16.503Z,95.36
2018-06-18T01:38:16.473Z,96.03
2018-06-18T01:39:16.460Z,96.32
2018-06-18T01:40:16.447Z,96.80
2018-06-18T01:41:16.435Z,96.61
2018-06-18T01:42:16.436Z,97.47
2018-06-18T01:43:16.406Z,96.99
2018-06-18T01:44:16.393Z,96.99
2018-06-18T01:45:16.379Z,97.09
2018-06-18T01:46:16.364Z,97.66
2018-06-18T01:47:16.367Z,97.95
2018-06-18T01:48:16.337Z,97.85
2018-06-18T01:49:16.328Z,97.85
2018-06-18T01:50:16.312Z,97.76
2018-06-18T01:51:16.289Z,98.52
2018-06-18T01:52:16.296Z,98.43
2018-06-18T01:53:16.274Z,98.52
2018-06-18T01:54:16.263Z,99.39
2018-06-18T01:55:16.242Z,99.19
2018-06-18T01:56:16.230Z,99.68
2018-06-18T01:57:16.216Z,99.68
2018-06-18T01:58:16.216Z,99.48
2018-06-18T01:59:16.185Z,99.96
2018-06-18T02:00:16.172Z,99.29
2018-06-18T02:01:16.161Z,99.96
2018-06-18T02:02:16.140Z,99.58
2018-06-18T02:03:16.132Z,99.99
2018-06-18T02:04:16.148Z,99.99
2018-06-18T02:05:16.105Z,99.99
2018-06-18T02:06:16.089Z,99.99
2018-06-18T02:07:16.076Z,99.99
2018-06-18T02:08:16.062Z,99.48
2018-06-18T02:09:17.759Z,99.77
2018-06-18T02:10:16.054Z,99.99
2018-06-18T02:11:16.035Z,99.99
2018-06-18T02:12:16.015Z,99.99
2018-06-18T02:13:15.987Z,99.99
2018-06-18T02:14:15.979Z,99.99
2018-06-18T02:15:15.981Z,99.99
2018-06-18T02:16:16.001Z,99.99
2018-06-18T02:17:15.948Z,99.99
2018-06-18T02:18:15.923Z,99.99
2018-06-18T02:19:16.761Z,99.99
2018-06-18T02:20:15.916Z,99.99
2018-06-18T02:21:15.884Z,99.99
2018-06-18T02:22:15.868Z,99.99
2018-06-18T02:23:15.857Z,99.99
2018-06-18T02:24:15.850Z,99.99
2018-06-18T02:25:15.828Z,99.99
2018-06-18T02:26:15.824Z,99.99
2018-06-18T02:27:15.798Z,99.99
2018-06-18T02:28:15.789Z,99.99
2018-06-18T02:29:15.786Z,99.99
2018-06-18T02:30:15.752Z,99.99
2018-06-18T02:31:15.748Z,99.99
2018-06-18T02:32:15.744Z,99.99
2018-06-18T02:33:15.717Z,99.99
2018-06-18T02:34:15.700Z,99.99
2018-06-18T02:35:15.687Z,99.99
2018-06-18T02:36:15.674Z,99.99
2018-06-18T02:37:15.677Z,99.99
2018-06-18T02:38:15.645Z,99.99
2018-06-18T02:39:15.637Z,99.99
2018-06-18T02:40:15.636Z,99.99
2018-06-18T02:41:15.604Z,99.99
2018-06-18T02:42:15.608Z,99.99
2018-06-18T02:43:15.583Z,99.99
2018-06-18T02:44:15.564Z,99.99
2018-06-18T02:45:15.565Z,99.99
2018-06-18T02:46:15.536Z,99.99
2018-06-18T02:47:15.522Z,99.99
2018-06-18T02:48:15.519Z,99.99
2018-06-18T02:49:15.514Z,99.99
2018-06-18T02:50:15.504Z,99.99
2018-06-18T02:51:15.470Z,99.99
2018-06-18T02:52:15.473Z,99.99
2018-06-18T02:53:15.441Z,99.99
2018-06-18T02:54:15.433Z,99.99
2018-06-18T02:55:15.431Z,99.99
2018-06-18T02:56:15.401Z,99.99
2018-06-18T02:57:15.396Z,99.99
2018-06-18T02:58:15.389Z,99.99
2018-06-18T02:59:15.366Z,99.99
2018-06-18T03:00:16.301Z,99.99
2018-06-18T03:01:15.358Z,99.99
2018-06-18T03:02:15.319Z,99.99
2018-06-18T03:03:15.304Z,99.99
2018-06-18T03:04:15.305Z,99.99
2018-06-18T03:05:15.279Z,99.99
2018-06-18T03:06:15.260Z,99.99
2018-06-18T03:07:15.267Z,99.99
2018-06-18T03:08:15.238Z,99.99
2018-06-18T03:09:15.239Z,99.99
2018-06-18T03:10:15.210Z,99.99
2018-06-18T03:11:15.196Z,99.99
2018-06-18T03:12:16.276Z,99.99
2018-06-18T03:13:15.165Z,99.99
2018-06-18T03:14:15.156Z,99.99
2018-06-18T03:15:15.144Z,99.99
2018-06-18T03:16:15.133Z,99.99
2018-06-18T03:17:15.130Z,99.99
2018-06-18T03:18:15.121Z,99.99
2018-06-18T03:19:15.086Z,99.99
2018-06-18T03:20:15.107Z,99.99
2018-06-18T03:21:15.062Z,99.99
2018-06-18T03:22:15.050Z,99.99
2018-06-18T03:23:15.049Z,99.99
2018-06-18T03:24:15.019Z,99.99
2018-06-18T03:25:15.008Z,99.99
2018-06-18T03:26:14.993Z,99.99
2018-06-18T03:27:14.978Z,99.99
2018-06-18T03:28:14.961Z,99.99
2018-06-18T03:29:14.971Z,99.99
2018-06-18T03:30:14.937Z,99.99
2018-06-18T03:31:14.921Z,99.99
2018-06-18T03:32:14.911Z,99.99
2018-06-18T03:33:14.909Z,99.99
2018-06-18T03:34:14.895Z,99.99
2018-06-18T03:35:14.868Z,99.99
2018-06-18T03:36:14.855Z,99.99
2018-06-18T03:37:14.873Z,99.99
2018-06-18T03:38:14.839Z,99.99
2018-06-18T03:39:14.827Z,99.99
2018-06-18T03:40:14.817Z,99.99
2018-06-18T03:41:14.787Z,99.99
2018-06-18T03:42:14.772Z,99.99
2018-06-18T03:43:14.762Z,99.99
2018-06-18T03:44:14.746Z,99.99
2018-06-18T03:45:14.743Z,99.99
2018-06-18T03:46:14.713Z,99.99
2018-06-18T03:47:14.707Z,99.99
2018-06-18T03:48:14.691Z,99.99
2018-06-18T03:49:14.675Z,99.99
2018-06-18T03:50:14.681Z,99.99
2018-06-18T03:51:14.646Z,99.99
2018-06-18T03:52:14.632Z,99.99
2018-06-18T03:53:14.620Z,99.99
2018-06-18T03:54:14.604Z,99.99
2018-06-18T03:55:14.611Z,99.99
2018-06-18T03:56:14.583Z,99.99
2018-06-18T03:57:14.566Z,99.99
2018-06-18T03:58:14.558Z,99.99
2018-06-18T03:59:14.540Z,99.99
2018-06-18T04:00:14.524Z,99.99
2018-06-18T04:01:14.524Z,99.99
2018-06-18T04:02:14.501Z,99.99
2018-06-18T04:03:14.499Z,99.99
2018-06-18T04:04:14.477Z,99.99
2018-06-18T04:05:14.509Z,99.99
2018-06-18T04:06:16.287Z,99.99
2018-06-18T04:07:14.428Z,99.99
2018-06-18T04:08:14.414Z,99.99
2018-06-18T04:09:14.403Z,99.99
2018-06-18T04:10:14.387Z,99.99
2018-06-18T04:11:14.377Z,99.99
2018-06-18T04:12:14.384Z,99.99
2018-06-18T04:13:14.346Z,99.99
2018-06-18T04:14:14.332Z,99.99
2018-06-18T04:15:14.321Z,99.99
2018-06-18T04:16:14.305Z,99.99
2018-06-18T04:17:14.293Z,99.99
2018-06-18T04:18:14.293Z,99.99
2018-06-18T04:19:14.267Z,99.99
2018-06-18T04:20:14.249Z,99.99
2018-06-18T04:21:14.234Z,99.99
2018-06-18T04:22:14.233Z,99.99
2018-06-18T04:23:14.228Z,99.99
2018-06-18T04:24:14.200Z,99.99
2018-06-18T04:25:14.174Z,99.99
2018-06-18T04:26:14.165Z,99.99
2018-06-18T04:27:14.151Z,99.99
2018-06-18T04:28:14.146Z,99.99
2018-06-18T04:29:14.145Z,99.99
2018-06-18T04:30:14.111Z,99.99
2018-06-18T04:31:14.095Z,99.99
2018-06-18T04:32:14.085Z,99.99
2018-06-18T04:33:14.067Z,99.99
2018-06-18T04:34:14.068Z,99.99
2018-06-18T04:35:14.038Z,99.99
2018-06-18T04:36:14.024Z,99.99
2018-06-18T04:37:14.012Z,99.99
2018-06-18T04:38:13.993Z,99.99
2018-06-18T04:39:14.006Z,99.99
2018-06-18T04:40:13.970Z,99.99
2018-06-18T04:41:13.972Z,99.99
2018-06-18T04:42:13.942Z,99.99
2018-06-18T04:43:13.925Z,99.99
2018-06-18T04:44:13.931Z,99.99
2018-06-18T04:45:13.919Z,99.99
2018-06-18T04:46:13.886Z,99.99
2018-06-18T04:47:13.886Z,99.99
2018-06-18T04:48:13.857Z,99.99
2018-06-18T04:49:13.844Z,99.99
2018-06-18T04:50:13.848Z,99.99
2018-06-18T04:51:13.829Z,99.99
2018-06-18T04:52:13.800Z,99.99
2018-06-18T04:53:13.790Z,99.99
2018-06-18T04:54:13.774Z,99.99
2018-06-18T04:55:13.777Z,99.99
2018-06-18T04:56:13.748Z,99.99
2018-06-18T04:57:13.734Z,99.99
2018-06-18T04:58:13.729Z,99.99
2018-06-18T04:59:13.720Z,99.99
2018-06-18T05:00:13.689Z,99.99
2018-06-18T05:01:13.679Z,99.99
2018-06-18T05:02:13.662Z,99.99
2018-06-18T05:03:13.659Z,99.99
2018-06-18T05:04:13.635Z,99.99
2018-06-18T05:05:13.647Z,99.99
2018-06-18T05:06:13.603Z,99.99
2018-06-18T05:07:13.593Z,99.99
2018-06-18T05:08:13.579Z,99.99
2018-06-18T05:09:13.570Z,99.99
2018-06-18T05:10:13.554Z,99.99
2018-06-18T05:11:13.552Z,99.99
2018-06-18T05:12:13.528Z,99.99
2018-06-18T05:13:13.513Z,99.99
2018-06-18T05:14:13.498Z,99.99
2018-06-18T05:15:13.492Z,99.99
2018-06-18T05:16:13.490Z,99.99
2018-06-18T05:17:13.457Z,99.99
2018-06-18T05:18:13.444Z,99.99
2018-06-18T05:19:13.430Z,99.99
2018-06-18T05:20:15.305Z,99.99
2018-06-18T05:21:13.414Z,99.99
2018-06-18T05:22:13.404Z,99.99
2018-06-18T05:23:13.377Z,99.99
2018-06-18T05:24:15.305Z,99.99
2018-06-18T05:25:13.347Z,99.99
2018-06-18T05:26:13.354Z,99.99
2018-06-18T05:27:13.325Z,99.99
2018-06-18T05:28:13.309Z,99.99
2018-06-18T05:29:13.841Z,99.99
2018-06-18T05:30:13.278Z,99.99
2018-06-18T05:31:13.287Z,99.99
2018-06-18T05:32:13.274Z,99.99
2018-06-18T05:33:13.243Z,99.99
2018-06-18T05:34:13.229Z,99.99
2018-06-18T05:35:13.223Z,99.99
2018-06-18T05:36:13.202Z,99.99
2018-06-18T05:37:13.203Z,99.99
2018-06-18T05:38:13.174Z,99.99
2018-06-18T05:39:13.179Z,99.99
2018-06-18T05:40:13.153Z,99.99
2018-06-18T05:41:13.137Z,99.99
2018-06-18T05:42:13.121Z,99.99
2018-06-18T05:43:13.110Z,99.99
2018-06-18T05:44:13.112Z,99.99
2018-06-18T05:45:13.095Z,99.99
2018-06-18T05:46:13.811Z,99.99
2018-06-18T05:47:13.058Z,99.99
2018-06-18T05:48:13.039Z,99.99
2018-06-18T05:49:13.049Z,99.99
2018-06-18T05:50:13.014Z,99.99
2018-06-18T05:51:13.003Z,99.99
2018-06-18T05:52:12.986Z,99.99
2018-06-18T05:53:12.973Z,99.99
2018-06-18T05:54:12.962Z,99.99
2018-06-18T05:55:12.978Z,99.99
2018-06-18T05:56:12.935Z,99.99
2018-06-18T05:57:12.921Z,99.99
2018-06-18T05:58:12.909Z,99.99
2018-06-18T05:59:12.894Z,99.99
2018-06-18T06:00:12.882Z,99.99
2018-06-18T06:01:12.898Z,99.99
2018-06-18T06:02:12.855Z,99.99
2018-06-18T06:03:12.841Z,99.99
2018-06-18T06:04:12.828Z,99.99
2018-06-18T06:05:12.812Z,99.99
2018-06-18T06:06:12.801Z,99.99
2018-06-18T06:07:12.806Z,99.99
2018-06-18T06:08:12.777Z,99.99
2018-06-18T06:09:12.761Z,99.99
2018-06-18T06:10:12.754Z,99.99
2018-06-18T06:11:12.774Z,99.99
2018-06-18T06:12:12.721Z,99.99
2018-06-18T06:13:12.706Z,99.99
2018-06-18T06:14:12.694Z,99.99
2018-06-18T06:15:12.680Z,99.99
2018-06-18T06:16:12.665Z,99.99
2018-06-18T06:17:12.692Z,99.99
2018-06-18T06:18:12.656Z,99.99
2018-06-18T06:19:12.629Z,99.99
2018-06-18T06:20:12.613Z,99.99
2018-06-18T06:21:12.602Z,99.99
2018-06-18T06:22:12.861Z,99.99
2018-06-18T06:23:12.595Z,99.99
2018-06-18T06:24:12.566Z,99.99
2018-06-18T06:25:12.553Z,99.99
2018-06-18T06:26:12.531Z,99.99
2018-06-18T06:27:12.524Z,99.99
2018-06-18T06:28:12.509Z,99.99
2018-06-18T06:29:12.511Z,99.99
2018-06-18T06:30:12.483Z,99.99
2018-06-18T06:31:12.474Z,99.99
2018-06-18T06:32:12.455Z,99.99
2018-06-18T06:33:12.455Z,99.99
2018-06-18T06:34:12.449Z,99.99
2018-06-18T06:35:12.416Z,99.99
2018-06-18T06:36:12.404Z,99.99
2018-06-18T06:37:12.382Z,99.99
2018-06-18T06:38:12.378Z,99.99
2018-06-18T06:39:12.375Z,99.99
2018-06-18T06:40:12.352Z,99.99
2018-06-18T06:42:44.369Z,99.99
2018-06-18T06:43:44.336Z,99.97
2018-06-18T06:44:44.340Z,99.99
2018-06-18T06:45:44.310Z,99.99
2018-06-18T06:46:44.297Z,99.54
2018-06-18T06:47:44.284Z,99.54
2018-06-18T06:48:44.312Z,99.63
2018-06-18T06:49:44.279Z,99.83
2018-06-18T06:50:44.249Z,99.99
2018-06-18T06:51:44.267Z,99.92
2018-06-18T06:52:44.220Z,99.92
2018-06-18T06:53:44.211Z,99.88
2018-06-18T06:54:44.213Z,98.63
2018-06-18T06:55:44.185Z,98.58
2018-06-18T06:56:44.169Z,98.39
2018-06-18T06:57:44.158Z,98.91
2018-06-18T06:58:44.148Z,99.01
2018-06-18T06:59:44.134Z,98.91
2018-06-18T07:00:44.137Z,97.76
2018-06-18T07:01:44.106Z,98.14
2018-06-18T07:02:44.108Z,97.86
2018-06-18T07:03:44.082Z,98.14
2018-06-18T07:04:44.070Z,98.14
2018-06-18T07:05:44.087Z,98.53
2018-06-18T07:06:44.048Z,97.28
2018-06-18T07:07:44.031Z,96.90
2018-06-18T07:08:44.016Z,96.90
2018-06-18T07:09:44.009Z,96.90
2018-06-18T07:10:43.998Z,97.28
2018-06-18T07:11:43.999Z,97.28
2018-06-18T07:12:43.964Z,97.04
2018-06-18T07:13:44.025Z,96.85
2018-06-18T07:14:43.956Z,95.21
2018-06-18T07:15:43.938Z,95.21
2018-06-18T07:16:43.938Z,96.13
2018-06-18T07:17:43.912Z,96.61
2018-06-18T07:18:43.900Z,97.19
2018-06-18T07:19:43.883Z,96.85
2018-06-18T07:20:43.874Z,96.90
2018-06-18T07:21:43.877Z,96.13
2018-06-18T07:22:43.864Z,96.47
2018-06-18T07:23:43.838Z,96.61
2018-06-18T07:24:43.828Z,95.89
2018-06-18T07:25:43.818Z,95.31
2018-06-18T07:26:43.801Z,95.40
2018-06-18T07:27:43.809Z,94.73
2018-06-18T07:28:43.778Z,94.45
2018-06-18T07:29:43.766Z,94.54
2018-06-18T07:30:43.778Z,93.29
2018-06-18T07:31:43.741Z,93.48
2018-06-18T07:32:43.744Z,93.38
2018-06-18T07:33:43.719Z,93.19
2018-06-18T07:34:43.708Z,93.29
2018-06-18T07:35:43.695Z,94.35
2018-06-18T07:36:43.681Z,93.38
2018-06-18T07:37:43.689Z,93.38
2018-06-18T07:38:45.485Z,93.77
2018-06-18T07:39:43.645Z,93.19
2018-06-18T07:40:43.633Z,93.19
2018-06-18T07:41:43.623Z,93.68
2018-06-18T07:42:43.611Z,92.81
2018-06-18T07:43:43.619Z,92.13
2018-06-18T07:44:43.601Z,92.52
2018-06-18T07:45:43.576Z,93.19
2018-06-18T07:46:43.563Z,92.81
2018-06-18T07:47:43.568Z,92.91
2018-06-18T07:48:43.533Z,91.66
2018-06-18T07:49:43.524Z,90.89
2018-06-18T07:50:43.515Z,91.27
2018-06-18T07:51:43.539Z,91.13
2018-06-18T07:52:43.488Z,91.22
2018-06-18T07:53:43.493Z,91.13
2018-06-18T07:54:43.468Z,90.83
2018-06-18T07:55:43.481Z,90.73
2018-06-18T07:56:43.441Z,90.45
2018-06-18T07:57:43.434Z,89.78
2018-06-18T07:58:43.417Z,90.64
2018-06-18T07:59:43.992Z,90.26
2018-06-18T08:00:43.412Z,90.40
2018-06-18T08:01:43.401Z,89.29
2018-06-18T08:02:43.370Z,90.01
2018-06-18T08:03:43.361Z,89.05
2018-06-18T08:04:43.357Z,88.67
2018-06-18T08:05:43.351Z,88.47
2018-06-18T08:06:43.343Z,89.43
2018-06-18T08:07:43.311Z,88.76
2018-06-18T08:08:43.302Z,88.38
2018-06-18T08:09:43.364Z,88.47
2018-06-18T08:10:43.290Z,88.57
2018-06-18T08:11:43.267Z,88.76
2018-06-18T08:12:43.273Z,88.57
2018-06-18T08:13:43.243Z,88.18
2018-06-18T08:14:43.228Z,87.60
2018-06-18T08:15:43.219Z,87.99
2018-06-18T08:16:43.210Z,87.80
2018-06-18T08:17:43.198Z,87.80
2018-06-18T08:18:43.201Z,87.70
2018-06-18T08:19:43.178Z,87.03
2018-06-18T08:20:43.998Z,87.99
2018-06-18T08:21:43.151Z,87.70
2018-06-18T08:22:43.139Z,88.23
2018-06-18T08:23:43.177Z,87.94
2018-06-18T08:24:43.119Z,86.69
2018-06-18T08:25:43.123Z,86.69
2018-06-18T08:26:43.098Z,86.21
2018-06-18T08:27:43.083Z,87.94
2018-06-18T08:28:43.071Z,86.30
2018-06-18T08:29:43.063Z,87.21
2018-06-18T08:30:43.069Z,85.67
2018-06-18T08:31:43.041Z,84.56
2018-06-18T08:32:43.028Z,86.01
2018-06-18T08:33:43.017Z,86.21
2018-06-18T08:34:43.051Z,86.40
2018-06-18T08:35:42.998Z,85.24
2018-06-18T08:36:43.005Z,85.34
2018-06-18T08:37:42.975Z,85.53
2018-06-18T08:38:42.958Z,85.67
2018-06-18T08:39:42.948Z,84.80
2018-06-18T08:40:42.940Z,84.22
2018-06-18T08:41:42.942Z,83.94
2018-06-18T08:42:42.930Z,84.90
2018-06-18T08:43:42.908Z,83.59
2018-06-18T08:44:42.896Z,83.64
2018-06-18T08:45:42.887Z,82.53
2018-06-18T08:46:42.889Z,83.40
2018-06-18T08:47:42.882Z,83.40
2018-06-18T08:48:42.869Z,83.16
2018-06-18T08:49:42.843Z,83.16
2018-06-18T08:50:42.867Z,82.68
2018-06-18T08:51:42.823Z,83.07
2018-06-18T08:52:42.825Z,83.07
2018-06-18T08:53:42.803Z,83.64
2018-06-18T08:54:42.791Z,83.64
2018-06-18T08:55:42.784Z,84.47
2018-06-18T08:56:42.770Z,85.53
2018-06-18T08:57:42.840Z,85.72
2018-06-18T08:58:42.748Z,85.63
2018-06-18T08:59:42.739Z,85.82
2018-06-18T09:00:42.730Z,85.24
2018-06-18T09:01:42.714Z,85.43
2018-06-18T09:02:43.544Z,85.72
2018-06-18T09:03:42.694Z,86.49
2018-06-18T09:04:42.685Z,86.30
2018-06-18T09:05:42.673Z,86.49
2018-06-18T09:06:42.663Z,86.69
2018-06-18T09:07:42.652Z,86.78
2018-06-18T09:08:42.656Z,86.98
2018-06-18T09:09:42.685Z,87.17
2018-06-18T09:10:42.618Z,86.30
2018-06-18T09:11:42.605Z,86.49
2018-06-18T09:12:42.596Z,87.46
2018-06-18T09:13:42.596Z,86.88
2018-06-18T09:15:42.558Z,86.73
2018-06-18T09:16:42.549Z,86.54
2018-06-18T09:17:42.533Z,86.44
2018-06-18T09:18:42.543Z,86.25
2018-06-18T09:19:42.509Z,85.63
2018-06-18T09:20:42.514Z,85.91
2018-06-18T09:21:42.493Z,85.53
2018-06-18T09:22:42.482Z,86.01
2018-06-18T09:23:43.545Z,85.05
2018-06-18T09:24:42.475Z,85.43
2018-06-18T09:25:42.448Z,85.86
2018-06-18T09:26:42.439Z,85.28
2018-06-18T09:27:42.418Z,85.47
2018-06-18T09:28:42.453Z,84.42
2018-06-18T09:29:42.415Z,85.19
2018-06-18T09:30:43.018Z,84.32
2018-06-18T09:31:42.396Z,83.78
2018-06-18T09:32:42.382Z,82.28
2018-06-18T09:33:42.360Z,82.38
2018-06-18T09:34:42.372Z,79.72
2018-06-18T09:35:42.342Z,78.23
2018-06-18T09:36:42.327Z,78.36
2018-06-18T09:37:42.318Z,77.83
2018-06-18T09:38:42.302Z,76.67
2018-06-18T09:39:42.294Z,73.78
2018-06-18T09:40:42.300Z,73.94
2018-06-18T09:41:42.287Z,73.94
2018-06-18T09:42:42.279Z,73.90
2018-06-18T09:43:42.257Z,73.30
2018-06-18T09:44:42.244Z,70.95
2018-06-18T09:45:42.235Z,68.02
2018-06-18T09:46:42.246Z,67.11
2018-06-18T09:47:42.219Z,66.75
2018-06-18T09:48:42.211Z,66.85
2018-06-18T09:49:42.203Z,67.14
2018-06-18T09:50:42.196Z,70.94
2018-06-18T09:51:42.187Z,73.26
2018-06-18T09:52:42.198Z,73.80
2018-06-18T09:53:42.177Z,72.36
2018-06-18T09:54:42.168Z,71.72
2018-06-18T09:55:42.205Z,71.78
2018-06-18T09:56:42.152Z,73.86
2018-06-18T09:57:42.164Z,74.12
2018-06-18T09:58:42.138Z,76.20
2018-06-18T09:59:42.140Z,76.88
2018-06-18T10:00:42.124Z,78.77
2018-06-18T10:01:42.132Z,79.00
2018-06-18T10:02:42.126Z,79.10
2018-06-18T10:03:42.100Z,77.75
2018-06-18T10:04:42.093Z,78.03
2018-06-18T10:05:42.085Z,77.94
2018-06-18T10:06:42.080Z,78.77
2018-06-18T10:07:42.089Z,79.83
2018-06-18T10:08:42.169Z,79.83
2018-06-18T10:09:42.053Z,80.51
2018-06-18T10:10:42.092Z,80.31
2018-06-18T10:11:42.025Z,80.79
2018-06-18T10:12:42.022Z,80.12
2018-06-18T10:13:42.027Z,80.41
2018-06-18T10:14:42.004Z,80.69
2018-06-18T10:15:41.985Z,79.93
2018-06-18T10:16:41.981Z,80.79
2018-06-18T10:17:41.968Z,80.60
2018-06-18T10:18:41.983Z,81.09
2018-06-18T10:19:41.949Z,80.22
2018-06-18T10:20:41.944Z,80.89
2018-06-18T10:21:41.935Z,81.18
2018-06-18T10:22:41.918Z,81.02
2018-06-18T10:23:41.918Z,80.83
2018-06-18T10:24:41.913Z,80.74
2018-06-18T10:25:41.890Z,80.16
2018-06-18T10:26:43.537Z,79.87
2018-06-18T10:27:41.867Z,80.16
2018-06-18T10:28:41.859Z,79.29
2018-06-18T10:29:41.861Z,78.03
2018-06-18T10:30:41.838Z,79.87
2018-06-18T10:31:41.826Z,79.29
2018-06-18T10:32:41.816Z,78.85
2018-06-18T10:33:41.805Z,79.00
2018-06-18T10:34:41.812Z,79.29
2018-06-18T10:35:41.783Z,78.61
2018-06-18T10:36:41.775Z,79.62
2018-06-18T10:37:41.763Z,79.72
2018-06-18T10:38:41.750Z,78.94
2018-06-18T10:39:41.759Z,79.62
2018-06-18T10:40:41.732Z,78.56
2018-06-18T10:41:41.723Z,79.04
2018-06-18T10:42:41.714Z,79.10
2018-06-18T10:43:41.701Z,80.00
2018-06-18T10:44:41.702Z,79.97
2018-06-18T10:45:41.682Z,79.87
2018-06-18T10:46:41.688Z,80.06
2018-06-18T10:47:41.659Z,80.78
2018-06-18T10:48:41.651Z,80.49
2018-06-18T10:49:41.654Z,81.74
2018-06-18T10:50:41.645Z,78.66
2018-06-18T10:51:41.620Z,80.00
2018-06-18T10:52:41.608Z,79.24
2018-06-18T10:53:41.598Z,79.91
2018-06-18T10:54:41.601Z,80.26
2018-06-18T10:55:41.578Z,81.55
2018-06-18T10:56:41.585Z,81.65
2018-06-18T10:57:41.552Z,80.87
2018-06-18T10:58:41.549Z,81.26
2018-06-18T10:59:41.539Z,81.45
2018-06-18T11:00:41.531Z,80.78
2018-06-18T11:01:41.532Z,81.26
2018-06-18T11:03:02.519Z,81.45
2018-06-18T11:03:41.508Z,81.65
2018-06-18T11:04:41.501Z,81.01
2018-06-18T11:05:41.486Z,80.72
2018-06-18T11:06:41.466Z,81.11
2018-06-18T11:07:41.466Z,81.30
2018-06-18T11:08:41.446Z,79.91
2018-06-18T11:09:41.447Z,81.26
2018-06-18T11:10:41.424Z,81.45
2018-06-18T11:11:41.417Z,81.65
2018-06-18T11:12:41.420Z,80.87
2018-06-18T11:13:41.393Z,81.26
2018-06-18T11:14:41.380Z,82.51
2018-06-18T11:15:41.395Z,81.35
2018-06-18T11:16:41.550Z,81.84
2018-06-18T11:17:41.357Z,81.84
2018-06-18T11:18:41.358Z,80.87
2018-06-18T11:19:41.332Z,80.39
2018-06-18T11:20:41.346Z,81.07
2018-06-18T11:21:41.316Z,81.26
2018-06-18T11:22:41.318Z,81.59
2018-06-18T11:23:41.292Z,80.14
2018-06-18T11:24:41.286Z,80.08
2018-06-18T11:25:41.293Z,79.31
2018-06-18T11:26:42.175Z,79.99
2018-06-18T11:27:41.274Z,81.05
2018-06-18T11:28:41.253Z,78.64
2018-06-18T11:29:41.244Z,78.83
2018-06-18T11:30:43.056Z,79.12
2018-06-18T11:31:43.056Z,78.92
2018-06-18T11:32:41.203Z,78.44
2018-06-18T11:33:41.211Z,78.89
2018-06-18T11:34:41.189Z,79.14
2018-06-18T11:35:41.197Z,80.30
2018-06-18T11:36:41.200Z,80.39
2018-06-18T11:37:42.084Z,81.45
2018-06-18T11:38:41.150Z,81.65
2018-06-18T11:39:41.233Z,81.55
2018-06-18T11:40:41.210Z,81.84
2018-06-18T11:41:41.145Z,82.13
2018-06-18T11:42:41.103Z,82.42
2018-06-18T11:43:41.123Z,82.51
2018-06-18T11:44:41.091Z,82.23
2018-06-18T11:45:41.077Z,83.09
2018-06-18T11:46:41.089Z,84.64
2018-06-18T11:47:41.060Z,83.67
2018-06-18T11:48:41.046Z,81.93
2018-06-18T11:49:41.037Z,82.03
2018-06-18T11:50:41.030Z,82.46
2018-06-18T11:51:42.064Z,82.26
2018-06-18T11:52:41.036Z,81.78
2018-06-18T11:53:40.993Z,82.07
2018-06-18T11:54:40.986Z,81.59
2018-06-18T11:55:40.980Z,82.56
2018-06-18T11:56:40.965Z,82.07
2018-06-18T11:57:40.952Z,83.91
2018-06-18T11:58:40.962Z,82.46
2018-06-18T11:59:40.949Z,83.14
2018-06-18T12:00:40.924Z,82.65
2018-06-18T12:01:40.943Z,82.36
2018-06-18T12:02:40.908Z,82.69
2018-06-18T12:03:40.897Z,82.21
2018-06-18T12:04:41.607Z,80.95
2018-06-18T12:05:40.875Z,81.48
2018-06-18T12:06:40.870Z,82.15
2018-06-18T12:07:40.886Z,81.71
2018-06-18T12:08:40.856Z,80.11
2018-06-18T12:09:40.919Z,79.91
2018-06-18T12:10:40.835Z,77.14
2018-06-18T12:11:40.822Z,77.34
2018-06-18T12:12:40.829Z,77.01
2018-06-18T12:13:40.799Z,77.17
2018-06-18T12:14:40.799Z,77.94
2018-06-18T12:15:40.785Z,77.90
2018-06-18T12:16:40.812Z,78.92
2018-06-18T12:17:40.786Z,80.08
2018-06-18T12:18:40.779Z,80.95
2018-06-18T12:19:40.754Z,81.84
2018-06-18T12:20:40.742Z,83.96
2018-06-18T12:21:40.734Z,85.80
2018-06-18T12:22:40.740Z,86.47
2018-06-18T12:23:40.715Z,86.72
2018-06-18T12:24:40.708Z,87.88
2018-06-18T12:25:40.699Z,88.99
2018-06-18T12:26:40.689Z,90.39
2018-06-18T12:27:40.675Z,91.16
2018-06-18T12:28:40.694Z,91.64
2018-06-18T12:29:40.661Z,91.83
2018-06-18T12:30:40.650Z,92.41
2018-06-18T12:31:40.638Z,92.32
2018-06-18T12:32:40.629Z,92.41
2018-06-18T12:33:40.620Z,92.90
2018-06-18T12:34:40.641Z,93.38
2018-06-18T12:35:40.598Z,93.57
2018-06-18T12:36:40.595Z,93.28
2018-06-18T12:37:40.579Z,94.63
2018-06-18T12:38:40.570Z,93.66
2018-06-18T12:39:41.579Z,93.62
2018-06-18T12:40:40.562Z,93.09
2018-06-18T12:41:40.538Z,93.28
2018-06-18T12:42:40.531Z,94.10
2018-06-18T12:43:40.513Z,94.15
2018-06-18T12:44:40.502Z,95.02
2018-06-18T12:45:40.526Z,93.96
2018-06-18T12:46:40.524Z,93.66
2018-06-18T12:47:40.471Z,93.71
2018-06-18T12:48:40.456Z,93.66
2018-06-18T12:49:40.448Z,93.28
2018-06-18T12:50:40.439Z,92.51
2018-06-18T12:51:40.446Z,94.00
2018-06-18T12:52:40.418Z,94.44
2018-06-18T12:53:40.411Z,95.40
2018-06-18T12:54:40.399Z,93.96